Eborense — CSMP — position and weather

sailwx.info

Track history (hours):
 
Tides and Currents Weather Stations Pressure Air Temp Water Temp Dewpoint Dewpoint Depression Visibility Wind Speed Wind Dir Waves Ship Positions

Eborense

Last reported at 2015-Jan-19 22:33 UTC. Time now 2015-Jan-25 20:25 UTC.
Position N 38°41' W 009°12'.

Length 49 m; draft 1.2 m.

Type: Passenger vessel. MMSI: 263701750.

Date/timePositionNaut miles runAvg speedWind from/ knotsBaromVisibWave heightAir tempDewpointWater temp
2015-Jan-19 22:33N 38°41' W 009°12'0 0.0
2015-Jan-18 22:25N 38°41' W 009°12'1 1.2
2015-Jan-18 21:33N 38°42' W 009°12'2 1.9
2015-Jan-18 20:33N 38°40' W 009°14'0 0.2
2015-Jan-18 19:33N 38°41' W 009°14'2 1.7
2015-Jan-18 18:33N 38°42' W 009°12'0 0.1
2015-Jan-18 17:33N 38°41' W 009°12'0 0.1
2015-Jan-18 16:33N 38°41' W 009°12'0 0.3
2015-Jan-18 15:33N 38°42' W 009°12'1 1.1
2015-Jan-18 14:33N 38°41' W 009°13'1 1.1
2015-Jan-18 13:33N 38°40' W 009°14'0 0.2
2015-Jan-18 12:33N 38°41' W 009°14'0 0.0
2015-Jan-18 11:33N 38°41' W 009°14'0 0.1
2015-Jan-18 10:32N 38°41' W 009°14'1 1.5
2015-Jan-18 09:33N 38°41' W 009°12'0 0.3
2015-Jan-18 08:33N 38°42' W 009°12'  
2015-Jan-13 22:32N 38°41' W 009°12'1 1.1
2015-Jan-13 21:32N 38°41' W 009°14'0 0.1
2015-Jan-13 20:32N 38°41' W 009°14'2 1.9
2015-Jan-13 19:32N 38°42' W 009°12'0 0.1
2015-Jan-13 18:33N 38°42' W 009°12'2 2.4
2015-Jan-13 17:31N 38°41' W 009°09'0 0.1
2015-Jan-13 16:26N 38°41' W 009°09'0 0.0
2015-Jan-13 15:32N 38°41' W 009°09'0 0.2
2015-Jan-13 14:31N 38°41' W 009°09'0 0.1
2015-Jan-13 13:32N 38°41' W 009°09'3 0.2
2015-Jan-12 22:29N 38°41' W 009°12'1 1.2
2015-Jan-12 21:32N 38°41' W 009°14'0 0.0
2015-Jan-12 20:32N 38°41' W 009°14'2 1.9
2015-Jan-12 19:33N 38°42' W 009°12'2 2.5
2015-Jan-12 18:33N 38°41' W 009°09'0 0.1
2015-Jan-12 17:33N 38°41' W 009°09'  
Track history (hours):
 
Tides and Currents Weather Stations Pressure Air Temp Water Temp Dewpoint Dewpoint Depression Visibility Wind Speed Wind Dir Waves Ship Positions

Eborense

Last reported at 2015-Jan-19 22:33 UTC. Time now 2015-Jan-25 20:25 UTC.
Position N 38°41' W 009°12'.

Length 49 m; draft 1.2 m.

Type: Passenger vessel. MMSI: 263701750.

Date/timePositionNaut miles runAvg speedWind from/ knotsBaromVisibWave heightAir tempDewpointWater temp
2015-Jan-19 22:33N 38°41' W 009°12'0 0.0
2015-Jan-18 22:25N 38°41' W 009°12'1 1.2
2015-Jan-18 21:33N 38°42' W 009°12'2 1.9
2015-Jan-18 20:33N 38°40' W 009°14'0 0.2
2015-Jan-18 19:33N 38°41' W 009°14'2 1.7
2015-Jan-18 18:33N 38°42' W 009°12'0 0.1
2015-Jan-18 17:33N 38°41' W 009°12'0 0.1
2015-Jan-18 16:33N 38°41' W 009°12'0 0.3
2015-Jan-18 15:33N 38°42' W 009°12'1 1.1
2015-Jan-18 14:33N 38°41' W 009°13'1 1.1
2015-Jan-18 13:33N 38°40' W 009°14'0 0.2
2015-Jan-18 12:33N 38°41' W 009°14'0 0.0
2015-Jan-18 11:33N 38°41' W 009°14'0 0.1
2015-Jan-18 10:32N 38°41' W 009°14'1 1.5
2015-Jan-18 09:33N 38°41' W 009°12'0 0.3
2015-Jan-18 08:33N 38°42' W 009°12'  
2015-Jan-13 22:32N 38°41' W 009°12'1 1.1
2015-Jan-13 21:32N 38°41' W 009°14'0 0.1
2015-Jan-13 20:32N 38°41' W 009°14'2 1.9
2015-Jan-13 19:32N 38°42' W 009°12'0 0.1
2015-Jan-13 18:33N 38°42' W 009°12'2 2.4
2015-Jan-13 17:31N 38°41' W 009°09'0 0.1
2015-Jan-13 16:26N 38°41' W 009°09'0 0.0
2015-Jan-13 15:32N 38°41' W 009°09'0 0.2
2015-Jan-13 14:31N 38°41' W 009°09'0 0.1
2015-Jan-13 13:32N 38°41' W 009°09'3 0.2
2015-Jan-12 22:29N 38°41' W 009°12'1 1.2
2015-Jan-12 21:32N 38°41' W 009°14'0 0.0
2015-Jan-12 20:32N 38°41' W 009°14'2 1.9
2015-Jan-12 19:33N 38°42' W 009°12'2 2.5
2015-Jan-12 18:33N 38°41' W 009°09'0 0.1
2015-Jan-12 17:33N 38°41' W 009°09'  

Dump ship's entire track history